MSC Carolina — 3ECV5 — position and weather

sailwx.info

Track history (hours):
 
Tides and Currents Weather Stations Pressure Air Temp Water Temp Dewpoint Dewpoint Depression Visibility Wind Speed Wind Dir Waves Ship Positions

MSC Carolina

Last reported at 2014-Sep-28 13:16 UTC. Time now 2014-Oct-01 08:22 UTC.
Position N 35°50' E 032°52'.

Length 275 m; draft 12 m.

Type: Ship (hazmat cat B). MMSI: 371475000.

Date/timePositionNaut miles runAvg speedWind from/ knotsBaromVisibWave heightAir tempDewpointWater temp
2014-Sep-28 13:16N 35°50' E 032°52'  
2014-Sep-25 22:14N 34°19' E 034°05'2816.2
2014-Sep-25 20:32N 34°30' E 033°34'1616.8
2014-Sep-25 19:33N 34°36' E 033°15'1212.0
2014-Sep-25 18:32N 34°39' E 033°01'0 0.0
2014-Sep-25 17:32N 34°39' E 033°01'0 0.0
2014-Sep-25 16:31N 34°39' E 033°01'0 0.0
2014-Sep-25 15:31N 34°39' E 033°01'0 0.0
2014-Sep-25 14:31N 34°39' E 033°01'0 0.0
2014-Sep-25 13:31N 34°39' E 033°01'0 0.0
2014-Sep-25 12:31N 34°39' E 033°01'0 0.0
2014-Sep-25 11:31N 34°39' E 033°01'0 0.0
2014-Sep-25 10:31N 34°39' E 033°01'0 0.0
2014-Sep-25 09:31N 34°39' E 033°01'0 0.0
2014-Sep-25 08:31N 34°39' E 033°01'0 0.0
2014-Sep-25 07:31N 34°39' E 033°01'0 0.0
2014-Sep-25 06:31N 34°39' E 033°01'0 0.0
2014-Sep-25 05:31N 34°39' E 033°01'0 0.0
2014-Sep-25 04:31N 34°39' E 033°01'0 0.3
2014-Sep-25 03:34N 34°39' E 033°01'7 6.6
2014-Sep-25 02:33N 34°37' E 033°09'2 1.6
2014-Sep-25 01:33N 34°38' E 033°07'0 0.5
2014-Sep-25 00:33N 34°38' E 033°07'8 7.7
2014-Sep-24 23:33N 34°30' E 033°04'1413.9
2014-Sep-24 22:34N 34°25' E 032°49'16 3.6
2014-Sep-24 18:12N 34°21' E 032°31'0 0.6
2014-Sep-24 17:33N 34°21' E 032°30'1 0.6
2014-Sep-24 16:33N 34°21' E 032°29'1 0.9
2014-Sep-24 15:33N 34°22' E 032°29'1 1.3
2014-Sep-24 14:33N 34°23' E 032°28'9 8.7
2014-Sep-24 13:33N 34°23' E 032°17'1111.1
2014-Sep-24 12:33N 34°23' E 032°04'1111.2
2014-Sep-24 11:34N 34°23' E 031°51'1111.2
2014-Sep-24 10:33N 34°22' E 031°37'1111.1
2014-Sep-24 09:34N 34°21' E 031°24'1210.8
2014-Sep-24 08:28N 34°20' E 031°09'1010.7
2014-Sep-24 07:33N 34°21' E 030°58'3310.9
2014-Sep-24 04:34N 34°23' E 030°18'1110.8
2014-Sep-24 03:32N 34°24' E 030°05'7111.0
2014-Sep-23 21:07N 34°28' E 028°39'4211.3
2014-Sep-23 17:22N 34°31' E 027°48'5210.9
2014-Sep-23 12:33N 34°34' E 026°44'1110.6
2014-Sep-23 11:32N 34°35' E 026°31'19212.5
2014-Sep-22 20:12N 34°59' E 022°40'813.0
2014-Sep-22 19:33N 35°00' E 022°30'1313.4
2014-Sep-22 18:33N 35°03' E 022°14'1313.5
2014-Sep-22 17:33N 35°07' E 021°58'1613.6
2014-Sep-22 16:22N 35°10' E 021°38'1113.5
2014-Sep-22 15:34N 35°13' E 021°26'1513.5
2014-Sep-22 14:27N 35°16' E 021°08'1313.4
2014-Sep-22 13:28N 35°19' E 020°52'1513.2
2014-Sep-22 12:19N 35°23' E 020°34'1013.1
2014-Sep-22 11:34N 35°25' E 020°22'262 9.0
2014-Sep-21 06:28N 36°25' E 015°07'1213.0
2014-Sep-21 05:33N 36°27' E 014°53'1312.9
2014-Sep-21 04:33N 36°29' E 014°37'1313.3
2014-Sep-21 03:33N 36°32' E 014°21'1413.7
2014-Sep-21 02:33N 36°36' E 014°04'1413.7
2014-Sep-21 01:33N 36°39' E 013°48'1313.5
2014-Sep-21 00:33N 36°42' E 013°31'1313.2
2014-Sep-20 23:33N 36°45' E 013°15'1313.1
2014-Sep-20 22:33N 36°47' E 012°59'1313.0
2014-Sep-20 21:33N 36°50' E 012°43'1313.0
2014-Sep-20 20:33N 36°53' E 012°28'1612.8
2014-Sep-20 19:20N 36°56' E 012°08'1212.6
2014-Sep-20 18:25N 37°00' E 011°55'6712.6
2014-Sep-20 13:08N 37°34' E 010°42'813.0
2014-Sep-20 12:33N 37°38' E 010°34'1513.3
2014-Sep-20 11:25N 37°45' E 010°18'1213.1
2014-Sep-20 10:28N 37°51' E 010°04'1212.7
2014-Sep-20 09:33N 37°53' E 009°49'1312.6
2014-Sep-20 08:32N 37°55' E 009°33'1312.7
2014-Sep-20 07:33N 37°57' E 009°18'2613.1
2014-Sep-20 05:33N 38°00' E 008°45'1413.3
2014-Sep-20 04:30N 38°02' E 008°27'9212.9
2014-Sep-19 21:22N 38°16' E 006°31'12314.0
2014-Sep-19 12:33N 38°40' E 003°57'4013.2
2014-Sep-19 09:33N 38°53' E 003°09'1612.8
2014-Sep-19 08:18N 38°59' E 002°50'1413.4
2014-Sep-19 07:15N 39°03' E 002°33'1416.2
2014-Sep-19 06:24N 39°07' E 002°16'11713.3
2014-Sep-18 21:33N 39°25' W 000°14'5 4.5
2014-Sep-18 20:33N 39°26' W 000°19'0 0.0
2014-Sep-18 19:32N 39°26' W 000°19'0 0.0
2014-Sep-18 18:26N 39°26' W 000°19'0 0.0
2014-Sep-18 17:29N 39°26' W 000°19'0 0.0
2014-Sep-18 16:32N 39°26' W 000°19'0 0.0
2014-Sep-18 15:32N 39°26' W 000°19'0 0.0
2014-Sep-18 14:26N 39°26' W 000°19'0 0.0
2014-Sep-18 13:32N 39°26' W 000°19'  
Track history (hours):
 
Tides and Currents Weather Stations Pressure Air Temp Water Temp Dewpoint Dewpoint Depression Visibility Wind Speed Wind Dir Waves Ship Positions

MSC Carolina

Last reported at 2014-Sep-28 13:16 UTC. Time now 2014-Oct-01 08:22 UTC.
Position N 35°50' E 032°52'.

Length 275 m; draft 12 m.

Type: Ship (hazmat cat B). MMSI: 371475000.

Date/timePositionNaut miles runAvg speedWind from/ knotsBaromVisibWave heightAir tempDewpointWater temp
2014-Sep-28 13:16N 35°50' E 032°52'  
2014-Sep-25 22:14N 34°19' E 034°05'2816.2
2014-Sep-25 20:32N 34°30' E 033°34'1616.8
2014-Sep-25 19:33N 34°36' E 033°15'1212.0
2014-Sep-25 18:32N 34°39' E 033°01'0 0.0
2014-Sep-25 17:32N 34°39' E 033°01'0 0.0
2014-Sep-25 16:31N 34°39' E 033°01'0 0.0
2014-Sep-25 15:31N 34°39' E 033°01'0 0.0
2014-Sep-25 14:31N 34°39' E 033°01'0 0.0
2014-Sep-25 13:31N 34°39' E 033°01'0 0.0
2014-Sep-25 12:31N 34°39' E 033°01'0 0.0
2014-Sep-25 11:31N 34°39' E 033°01'0 0.0
2014-Sep-25 10:31N 34°39' E 033°01'0 0.0
2014-Sep-25 09:31N 34°39' E 033°01'0 0.0
2014-Sep-25 08:31N 34°39' E 033°01'0 0.0
2014-Sep-25 07:31N 34°39' E 033°01'0 0.0
2014-Sep-25 06:31N 34°39' E 033°01'0 0.0
2014-Sep-25 05:31N 34°39' E 033°01'0 0.0
2014-Sep-25 04:31N 34°39' E 033°01'0 0.3
2014-Sep-25 03:34N 34°39' E 033°01'7 6.6
2014-Sep-25 02:33N 34°37' E 033°09'2 1.6
2014-Sep-25 01:33N 34°38' E 033°07'0 0.5
2014-Sep-25 00:33N 34°38' E 033°07'8 7.7
2014-Sep-24 23:33N 34°30' E 033°04'1413.9
2014-Sep-24 22:34N 34°25' E 032°49'16 3.6
2014-Sep-24 18:12N 34°21' E 032°31'0 0.6
2014-Sep-24 17:33N 34°21' E 032°30'1 0.6
2014-Sep-24 16:33N 34°21' E 032°29'1 0.9
2014-Sep-24 15:33N 34°22' E 032°29'1 1.3
2014-Sep-24 14:33N 34°23' E 032°28'9 8.7
2014-Sep-24 13:33N 34°23' E 032°17'1111.1
2014-Sep-24 12:33N 34°23' E 032°04'1111.2
2014-Sep-24 11:34N 34°23' E 031°51'1111.2
2014-Sep-24 10:33N 34°22' E 031°37'1111.1
2014-Sep-24 09:34N 34°21' E 031°24'1210.8
2014-Sep-24 08:28N 34°20' E 031°09'1010.7
2014-Sep-24 07:33N 34°21' E 030°58'3310.9
2014-Sep-24 04:34N 34°23' E 030°18'1110.8
2014-Sep-24 03:32N 34°24' E 030°05'7111.0
2014-Sep-23 21:07N 34°28' E 028°39'4211.3
2014-Sep-23 17:22N 34°31' E 027°48'5210.9
2014-Sep-23 12:33N 34°34' E 026°44'1110.6
2014-Sep-23 11:32N 34°35' E 026°31'19212.5
2014-Sep-22 20:12N 34°59' E 022°40'813.0
2014-Sep-22 19:33N 35°00' E 022°30'1313.4
2014-Sep-22 18:33N 35°03' E 022°14'1313.5
2014-Sep-22 17:33N 35°07' E 021°58'1613.6
2014-Sep-22 16:22N 35°10' E 021°38'1113.5
2014-Sep-22 15:34N 35°13' E 021°26'1513.5
2014-Sep-22 14:27N 35°16' E 021°08'1313.4
2014-Sep-22 13:28N 35°19' E 020°52'1513.2
2014-Sep-22 12:19N 35°23' E 020°34'1013.1
2014-Sep-22 11:34N 35°25' E 020°22'262 9.0
2014-Sep-21 06:28N 36°25' E 015°07'1213.0
2014-Sep-21 05:33N 36°27' E 014°53'1312.9
2014-Sep-21 04:33N 36°29' E 014°37'1313.3
2014-Sep-21 03:33N 36°32' E 014°21'1413.7
2014-Sep-21 02:33N 36°36' E 014°04'1413.7
2014-Sep-21 01:33N 36°39' E 013°48'1313.5
2014-Sep-21 00:33N 36°42' E 013°31'1313.2
2014-Sep-20 23:33N 36°45' E 013°15'1313.1
2014-Sep-20 22:33N 36°47' E 012°59'1313.0
2014-Sep-20 21:33N 36°50' E 012°43'1313.0
2014-Sep-20 20:33N 36°53' E 012°28'1612.8
2014-Sep-20 19:20N 36°56' E 012°08'1212.6
2014-Sep-20 18:25N 37°00' E 011°55'6712.6
2014-Sep-20 13:08N 37°34' E 010°42'813.0
2014-Sep-20 12:33N 37°38' E 010°34'1513.3
2014-Sep-20 11:25N 37°45' E 010°18'1213.1
2014-Sep-20 10:28N 37°51' E 010°04'1212.7
2014-Sep-20 09:33N 37°53' E 009°49'1312.6
2014-Sep-20 08:32N 37°55' E 009°33'1312.7
2014-Sep-20 07:33N 37°57' E 009°18'2613.1
2014-Sep-20 05:33N 38°00' E 008°45'1413.3
2014-Sep-20 04:30N 38°02' E 008°27'9212.9
2014-Sep-19 21:22N 38°16' E 006°31'12314.0
2014-Sep-19 12:33N 38°40' E 003°57'4013.2
2014-Sep-19 09:33N 38°53' E 003°09'1612.8
2014-Sep-19 08:18N 38°59' E 002°50'1413.4
2014-Sep-19 07:15N 39°03' E 002°33'1416.2
2014-Sep-19 06:24N 39°07' E 002°16'11713.3
2014-Sep-18 21:33N 39°25' W 000°14'5 4.5
2014-Sep-18 20:33N 39°26' W 000°19'0 0.0
2014-Sep-18 19:32N 39°26' W 000°19'0 0.0
2014-Sep-18 18:26N 39°26' W 000°19'0 0.0
2014-Sep-18 17:29N 39°26' W 000°19'0 0.0
2014-Sep-18 16:32N 39°26' W 000°19'0 0.0
2014-Sep-18 15:32N 39°26' W 000°19'0 0.0
2014-Sep-18 14:26N 39°26' W 000°19'0 0.0
2014-Sep-18 13:32N 39°26' W 000°19'  

Dump ship's entire track history